• Join FlightAware (Why Join?)
  • Login
  • US Flag 
02:54AM EDT


 

Airport Tracker/Info


-or-


 

Live Flight TrackerFlight Track Log ✈ SWA558 ✈ 10-Apr-2013 ✈ KTPA - KMHT

Flight Track Log - Related Links

Times and Time Zones

All times are in EDT time to prevent confusion due to time zone crossing. See the SWA558 flight status page for this flight to view local times or setup timezone preferences in your user account.

Time Position Orientation Groundspeed Altitude Reporting Facility
EDT Latitude Longitude Course Direction KTS MPH feet Rate Location/Type
09:58AM 27.9667 -82.5500 North 168 193 500  Level Tampa TRACON
09:59AM 27.9167 -82.5667 196° South 193 222 2,400 2,400 Climbing Tampa TRACON
10:01AM 27.8492 -82.6344 222° Southwest 205 236 7,200 2,520 Climbing Jacksonville Center
10:02AM 27.8931 -82.6883 313° West 176 203 9,600 2,160 Climbing Jacksonville Center
10:03AM 27.9786 -82.6622 15° North 162 186 11,600 2,520 Climbing Jacksonville Center
10:04AM 28.6558 -82.5833 North  Level FlightAware Approximate
10:04AM 28.0850 -82.6433 North 278 320 14,700  Level Jacksonville Center
10:05AM 28.1872 -82.6217 11° North 324 373 17,600 2,580 Climbing Jacksonville Center
10:06AM 28.2978 -82.5981 11° North 364 419 19,900 2,400 Climbing Jacksonville Center
10:07AM 28.4144 -82.5811 North 396 456 22,400 2,400 Climbing Jacksonville Center
10:08AM 28.5294 -82.5831 359° North 407 468 24,800 2,220 Climbing Jacksonville Center
10:09AM 28.6461 -82.5897 357° North 412 474 26,900 1,740 Climbing Jacksonville Center
10:10AM 28.7547 -82.5989 356° North 422 486 28,300 1,380 Climbing Jacksonville Center
10:11AM 28.8800 -82.6200 352° North 435 501 29,700 1,740 Climbing Jacksonville Center
10:12AM 29.0033 -82.6339 354° North 446 513 31,800 1,140 Climbing Jacksonville Center
10:13AM 29.1286 -82.6547 352° North 446 513 32,000 60 Climbing Jacksonville Center
10:14AM 29.2517 -82.6689 354° North 446 513 32,000  Level Jacksonville Center
10:15AM 29.3728 -82.6875 352° North 446 513 32,000  Level Jacksonville Center
10:16AM 29.5022 -82.6969 356° North 446 513 32,000 420 Level Jacksonville Center
10:17AM 29.6275 -82.6942 North 451 519 32,900 1,200 Climbing Jacksonville Center
10:18AM 29.7528 -82.6942 360° North 446 513 34,500 1,680 Climbing Jacksonville Center
10:19AM 29.8717 -82.6914 North 435 501 36,300 1,200 Climbing Jacksonville Center
10:20AM 29.9928 -82.6911 360° North 430 495 37,000 300 Climbing Jacksonville Center
10:21AM 30.1264 -82.6861 North 430 495 37,000  Level Jacksonville Center
10:22AM 30.2456 -82.6858 360° North 430 495 37,000  Level Jacksonville Center
10:23AM 30.3667 -82.6856 360° North 430 495 37,000  Level Jacksonville Center
10:24AM 30.4856 -82.6828 North 425 489 37,000  Level Jacksonville Center
10:25AM 30.5919 -82.6489 15° North 425 489 37,000  Level Jacksonville Center
10:26AM 30.7047 -82.5931 23° Northeast 425 489 37,000  Level Jacksonville Center
10:27AM 30.8194 -82.5344 24° Northeast 436 502 37,000  Level Jacksonville Center
10:28AM 30.9339 -82.4808 22° Northeast 436 502 37,000  Level Jacksonville Center
10:29AM 31.0467 -82.4247 23° Northeast 436 502 37,000  Level Jacksonville Center
10:30AM 31.1592 -82.3706 22° Northeast 436 502 37,000  Level Jacksonville Center
10:31AM 31.2758 -82.3142 22° Northeast 436 502 37,000  Level Jacksonville Center
10:32AM 31.3883 -82.2597 22° Northeast 436 502 37,000  Level Jacksonville Center
10:33AM 31.5028 -82.2078 21° North 436 502 37,000  Level Jacksonville Center
10:34AM 31.6256 -82.1411 25° Northeast 429 494 37,000  Level Jacksonville Center
10:35AM 31.7400 -82.0839 23° Northeast 443 510 37,000  Level Jacksonville Center
10:36AM 31.8442 -82.0317 23° Northeast 437 503 37,000  Level Jacksonville Center
10:37AM 31.9711 -81.9717 22° Northeast 437 503 37,000  Level Jacksonville Center
10:38AM 32.0750 -81.9217 22° Northeast 437 503 37,000  Level Jacksonville Center
10:39AM 32.2019 -81.8614 22° Northeast 437 503 37,000  Level Jacksonville Center
10:40AM 32.3186 -81.8083 21° North 443 510 37,000  Level Jacksonville Center
10:41AM 32.4225 -81.7581 22° Northeast 443 510 37,000  Level Jacksonville Center
10:42AM 32.5406 -81.6728 31° Northeast 443 510 37,000  Level Jacksonville Center
10:43AM 32.6442 -81.5950 32° Northeast 443 510 37,000  Level Jacksonville Center
10:44AM 32.7394 -81.5194 34° Northeast 448 516 37,000  Level Jacksonville Center
10:45AM 32.8450 -81.4386 33° Northeast 448 516 37,000  Level Jacksonville Center
10:46AM 32.9464 -81.3603 33° Northeast 443 510 37,000  Level Jacksonville Center
10:47AM 33.0517 -81.2792 33° Northeast 443 510 37,000  Level Jacksonville Center
10:48AM 33.1572 -81.1978 33° Northeast 448 516 37,000  Level Jacksonville Center
10:49AM 33.2625 -81.1164 33° Northeast 448 516 37,000  Level Jacksonville Center
10:50AM 33.3739 -81.0297 33° Northeast 448 516 37,000  Level Jacksonville Center
10:51AM 33.4792 -80.9478 33° Northeast 448 516 37,000  Level Jacksonville Center
10:52AM 33.5844 -80.8656 33° Northeast 448 516 37,000  Level Jacksonville Center
10:53AM 33.6872 -80.7858 33° Northeast 443 510 37,000  Level Jacksonville Center
10:54AM 33.7903 -80.7058 33° Northeast 443 510 37,000  Level Jacksonville Center
10:55AM 33.8933 -80.6233 34° Northeast 443 510 37,000  Level Jacksonville Center
10:56AM 33.9981 -80.5431 32° Northeast 443 510 37,000  Level Jacksonville Center
10:57AM 34.0989 -80.4600 34° Northeast 443 510 37,000  Level Jacksonville Center
10:58AM 34.2036 -80.3792 33° Northeast 443 510 37,000  Level Jacksonville Center
10:59AM 34.3083 -80.2958 33° Northeast 443 510 37,000  Level Jacksonville Center
11:01AM 34.4833 -80.1497 35° Northeast 426 490 37,000  Level Washington Center
11:02AM 34.5911 -80.0622 34° Northeast 444 511 37,000  Level Washington Center
11:03AM 34.6983 -79.9797 32° Northeast 449 517 37,000  Level Washington Center
11:04AM 34.8036 -79.8969 33° Northeast 455 524 37,000  Level Washington Center
11:05AM 34.9089 -79.8114 34° Northeast 455 524 37,000  Level Washington Center
11:06AM 35.0122 -79.7256 34° Northeast 455 524 37,000  Level Washington Center
11:07AM 35.1153 -79.6419 34° Northeast 455 524 37,000  Level Washington Center
11:08AM 35.2144 -79.5478 38° Northeast 449 517 37,000  Level Washington Center
11:09AM 35.3053 -79.4428 43° Northeast 449 517 37,000  Level Washington Center
11:10AM 35.3983 -79.3378 43° Northeast 449 517 37,000  Level Washington Center
11:11AM 35.4981 -79.2225 43° Northeast 449 517 37,000  Level Washington Center
11:12AM 35.5822 -79.1267 43° Northeast 449 517 37,000  Level Washington Center
11:13AM 35.6731 -79.0208 43° Northeast 444 511 37,000  Level Washington Center
11:14AM 35.7636 -78.9147 44° Northeast 444 511 37,000  Level Washington Center
11:15AM 35.8583 -78.8058 43° Northeast 444 511 37,000  Level Washington Center
11:16AM 35.9675 -78.7025 37° Northeast 444 511 37,000 660 Level Washington Center
11:17AM 36.0700 -78.6139 35° Northeast 444 511 38,400 960 Climbing Washington Center
11:18AM 36.1703 -78.5278 35° Northeast 444 511 39,000 300 Climbing Washington Center
11:19AM 36.2703 -78.4389 36° Northeast 439 505 39,000  Level Washington Center
11:20AM 36.3683 -78.3519 36° Northeast 439 505 39,000  Level Washington Center
11:21AM 36.4686 -78.2625 36° Northeast 439 505 39,000  Level Washington Center
11:22AM 36.5664 -78.1703 37° Northeast 439 505 39,000  Level Washington Center
11:23AM 36.6622 -78.0778 38° Northeast 439 505 39,000  Level Washington Center
11:24AM 36.7600 -77.9900 36° Northeast 434 499 39,000  Level Washington Center
11:25AM 36.8600 -77.8969 37° Northeast 434 499 39,000  Level Washington Center
11:26AM 36.9578 -77.8039 37° Northeast 440 506 39,000  Level Washington Center
11:27AM 37.0594 -77.7131 35° Northeast 440 506 39,000  Level Washington Center
11:28AM 37.1569 -77.6194 37° Northeast 440 506 39,000  Level Washington Center
11:29AM 37.2586 -77.5256 36° Northeast 440 506 39,000  Level Washington Center
11:30AM 37.3603 -77.4314 36° Northeast 440 506 39,000  Level Washington Center
11:31AM 37.4619 -77.3369 36° Northeast 445 512 39,000  Level Washington Center
11:32AM 37.5611 -77.2422 37° Northeast 445 512 39,000  Level Washington Center
11:33AM 37.6394 -77.1628 39° Northeast 445 512 39,000  Level Washington Center
11:34AM 37.7472 -77.0600 37° Northeast 440 506 39,000  Level Washington Center
11:35AM 37.8483 -76.9672 36° Northeast 440 506 39,000  Level Washington Center
11:36AM 37.9453 -76.8714 38° Northeast 440 506 39,000  Level Washington Center
11:37AM 38.0506 -76.7678 38° Northeast 446 513 39,000  Level Washington Center
11:38AM 38.1475 -76.6742 37° Northeast 440 506 39,000  Level Washington Center
11:39AM 38.2442 -76.5806 37° Northeast 440 506 39,000  Level Washington Center
11:40AM 38.3408 -76.4864 37° Northeast 440 506 39,000  Level Washington Center
11:41AM 38.4417 -76.3869 38° Northeast 445 512 39,000  Level Washington Center
11:42AM 38.5403 -76.2897 38° Northeast 445 512 39,000  Level Washington Center
11:43AM 38.6367 -76.1950 37° Northeast 445 512 39,000  Level Washington Center
11:44AM 38.7372 -76.1000 36° Northeast 445 512 39,000  Level Washington Center
11:45AM 38.8356 -75.9994 39° Northeast 445 512 39,000  Level Washington Center
11:46AM 38.9317 -75.9039 38° Northeast 445 512 39,000  Level Washington Center
11:47AM 39.0319 -75.8081 37° Northeast 445 512 39,000  Level Washington Center
11:48AM 39.1281 -75.7094 39° Northeast 445 512 39,000  Level Washington Center
11:49AM 39.2714 -75.5714 37° Northeast 460 529 39,000  Level New York Center
11:50AM 39.3844 -75.5119 22° Northeast 427 491 39,000  Level New York Center
11:51AM 39.4992 -75.4578 20° North 427 491 39,000  Level New York Center
11:52AM 39.6139 -75.4033 20° North 427 491 39,000  Level New York Center
11:53AM 39.7286 -75.3489 20° North 433 498 39,000  Level New York Center
11:54AM 39.8456 -75.2917 21° North 438 504 39,000  Level New York Center
11:55AM 39.9603 -75.2339 21° North 438 504 39,000  Level New York Center
11:56AM 40.0750 -75.1761 21° North 438 504 39,000  Level New York Center
11:57AM 40.1875 -75.1208 21° North 438 504 39,000  Level New York Center
11:58AM 40.3086 -75.0578 22° Northeast 438 504 39,000  Level New York Center
11:59AM 40.4233 -75.0022 20° North 438 504 39,000  Level New York Center
12:00PM 40.5358 -74.9436 22° Northeast 438 504 39,000  Level New York Center
12:01PM 40.6481 -74.8875 21° North 438 504 39,000  Level New York Center
12:02PM 40.7606 -74.8339 20° North 438 504 39,000  Level New York Center
12:04PM 40.9389 -74.7428 21° North 431 496 39,000  Level Boston Center
12:05PM 41.0567 -74.6836 21° North 415 478 39,000  Level Boston Center
12:06PM 41.1683 -74.6267 21° North 415 478 39,000  Level Boston Center
12:07PM 41.2714 -74.5806 19° North 421 484 39,000  Level Boston Center
12:08PM 41.3828 -74.5233 21° North 421 484 39,000  Level Boston Center
12:09PM 41.4925 -74.4633 22° Northeast 426 490 39,000  Level Boston Center
12:10PM 41.6039 -74.4056 21° North 420 483 39,000 -300 Level Boston Center
12:11PM 41.7236 -74.3453 21° North 420 483 38,400 -1,500 Descending Boston Center
12:12PM 41.8247 -74.2928 21° North 409 471 36,000 -1,740 Descending Boston Center
12:13PM 41.9158 -74.1894 40° Northeast 409 471 35,000 -1,200 Descending Boston Center
12:14PM 41.9806 -74.0347 61° Northeast 422 486 33,700 -1,680 Descending Boston Center
12:15PM 42.0411 -73.8881 61° Northeast 439 505 31,600 -2,100 Descending Boston Center
12:16PM 42.1011 -73.7383 62° Northeast 446 513 29,600 -1,980 Descending Boston Center
12:17PM 42.1739 -73.5633 61° Northeast 451 519 27,400 -1,920 Descending Boston Center
12:18PM 42.2294 -73.4214 62° Northeast 437 503 25,500 -1,560 Descending Boston Center
12:19PM 42.2825 -73.2958 60° Northeast 406 467 24,000 -1,200 Descending Boston Center
12:20PM 42.3483 -73.1256 62° Northeast 391 450 22,900 -1,080 Descending Boston Center
12:21PM 42.4011 -72.9939 61° Northeast 409 471 21,900 -1,020 Descending Boston Center
12:23PM 42.4558 -72.8508 63° Northeast 409 471 20,900 -1,320 Descending Boston Center
12:23PM 42.5083 -72.7189 62° Northeast 404 465 19,300 -1,620 Descending Boston Center
12:24PM 42.5544 -72.6147 59° Northeast 377 434 17,800 -1,680 Descending Boston Center
12:26PM 42.6047 -72.4853 62° Northeast 372 428 16,000 -1,800 Descending Boston Center
12:26PM 42.6525 -72.3611 62° Northeast 372 428 14,300 -1,800 Descending Boston Center
12:27PM 42.6983 -72.2394 63° Northeast 364 419 12,500 -2,040 Descending Boston Center
12:28PM 42.7481 -72.1094 62° Northeast 358 412 10,300 -1,920 Descending Boston Center
12:30PM 42.7872 -72.0100 62° Northeast 334 384 8,700 -1,620 Descending Boston Center
12:31PM 42.8097 -71.8853 76° East 319 367 7,100 -1,800 Descending Boston Center
12:32PM 42.7883 -71.7867 106° East 292 336 5,100 -1,680 Descending Boston Center
12:32PM 42.7708 -71.6792 102° East 276 318 3,900 -1,320 Descending Boston Center
12:33PM 42.7956 -71.6167 62° Northeast 204 235 2,600 -960 Descending Boston Center
12:34PM 42.8347 -71.5653 44° Northeast 182 209 2,000 -360 Descending Boston Center
12:35PM 42.8656 -71.5281 41° Northeast 166 191 1,900 -540 Descending Boston Center
12:36PM 42.9008 -71.4850 42° Northeast 156 180 1,000 -840 Descending Boston Center
12:38PM 42.9256 -71.4533 43° Northeast 151 174 300 8,880 Descending Boston Center
12:39PM 42.9606 -71.4131 40° Northeast 151 174 19,000 9,420 Climbing Boston Center
12:39PM 42.9914 -71.3786 39° Northeast 151 174 19,000  Level Boston Center
12:40PM 43.0225 -71.3411 41° Northeast 151 174 19,000  Level Boston Center
12:41PM 43.0533 -71.3064 39° Northeast 151 174 19,000  Level Boston Center
12:44PM 42.9328 -71.4358 316° Northwest  Level Estimated
12:51PM 42.9328 -71.4358 316° Northwest  Level Estimated
12:52PM 42.9328 -71.4358 316° Northwest  Level Estimated
12:53PM 42.9328 -71.4358 316° Northwest  Level Estimated
12:54PM 42.9328 -71.4358 316° Northwest  Level Estimated
12:55PM 42.9328 -71.4358 316° Northwest  Level Estimated
12:56PM 42.9328 -71.4358 316° Northwest  Level Estimated